sensor_id;sensor_type;location;lat;lon;timestamp;pressure;altitude;pressure_sealevel;temperature;humidity
24996;BME280;13016;52.162;21.034;2023-05-25T00:01:10;100723.48;;;19.12;59.87
24996;BME280;13016;52.162;21.034;2023-05-25T00:07:10;100724.10;;;18.96;60.33
24996;BME280;13016;52.162;21.034;2023-05-25T00:13:11;100726.00;;;18.83;60.86
24996;BME280;13016;52.162;21.034;2023-05-25T00:19:11;100727.52;;;18.82;60.86
24996;BME280;13016;52.162;21.034;2023-05-25T00:25:11;100732.36;;;18.80;60.79
24996;BME280;13016;52.162;21.034;2023-05-25T00:31:11;100732.73;;;18.74;60.91
24996;BME280;13016;52.162;21.034;2023-05-25T00:37:12;100731.59;;;18.77;60.99
24996;BME280;13016;52.162;21.034;2023-05-25T00:43:12;100732.48;;;18.77;61.06
24996;BME280;13016;52.162;21.034;2023-05-25T00:49:14;100729.60;;;18.73;61.31
24996;BME280;13016;52.162;21.034;2023-05-25T00:55:15;100729.55;;;18.74;61.45
24996;BME280;13016;52.162;21.034;2023-05-25T01:01:17;100745.76;;;18.76;61.52
24996;BME280;13016;52.162;21.034;2023-05-25T01:07:20;100750.12;;;18.83;61.60
24996;BME280;13016;52.162;21.034;2023-05-25T01:13:21;100749.85;;;18.88;61.39
24996;BME280;13016;52.162;21.034;2023-05-25T01:19:21;100747.75;;;18.85;61.35
24996;BME280;13016;52.162;21.034;2023-05-25T01:25:24;100748.14;;;18.81;61.66
24996;BME280;13016;52.162;21.034;2023-05-25T01:31:27;100753.52;;;18.79;61.92
24996;BME280;13016;52.162;21.034;2023-05-25T01:37:28;100751.59;;;18.83;61.83
24996;BME280;13016;52.162;21.034;2023-05-25T01:43:29;100754.15;;;18.84;62.08
24996;BME280;13016;52.162;21.034;2023-05-25T01:49:42;100753.06;;;18.84;62.12
24996;BME280;13016;52.162;21.034;2023-05-25T01:55:52;100754.08;;;18.85;62.37
24996;BME280;13016;52.162;21.034;2023-05-25T02:01:54;100752.20;;;18.86;62.37
24996;BME280;13016;52.162;21.034;2023-05-25T02:07:54;100752.59;;;18.79;62.69
24996;BME280;13016;52.162;21.034;2023-05-25T02:13:55;100749.20;;;18.87;62.86
24996;BME280;13016;52.162;21.034;2023-05-25T02:19:55;100746.14;;;18.90;62.58
24996;BME280;13016;52.162;21.034;2023-05-25T02:25:55;100743.38;;;18.94;62.52
24996;BME280;13016;52.162;21.034;2023-05-25T02:31:56;100753.70;;;19.03;62.33
24996;BME280;13016;52.162;21.034;2023-05-25T02:37:56;100762.95;;;18.89;62.64
24996;BME280;13016;52.162;21.034;2023-05-25T02:43:56;100765.31;;;18.95;62.46
24996;BME280;13016;52.162;21.034;2023-05-25T02:49:56;100766.10;;;18.94;62.35
24996;BME280;13016;52.162;21.034;2023-05-25T02:55:56;100769.98;;;18.93;62.35
24996;BME280;13016;52.162;21.034;2023-05-25T03:01:57;100765.77;;;18.78;62.85
24996;BME280;13016;52.162;21.034;2023-05-25T03:07:58;100762.58;;;18.80;62.68
24996;BME280;13016;52.162;21.034;2023-05-25T03:13:58;100762.54;;;18.82;62.56
24996;BME280;13016;52.162;21.034;2023-05-25T03:19:58;100761.29;;;18.74;62.79
24996;BME280;13016;52.162;21.034;2023-05-25T03:25:58;100774.16;;;18.68;63.14
24996;BME280;13016;52.162;21.034;2023-05-25T03:31:59;100777.83;;;18.77;62.96
24996;BME280;13016;52.162;21.034;2023-05-25T03:37:59;100791.34;;;18.86;62.58
24996;BME280;13016;52.162;21.034;2023-05-25T03:43:59;100792.64;;;18.88;62.50
24996;BME280;13016;52.162;21.034;2023-05-25T03:49:59;100797.59;;;18.86;62.42
24996;BME280;13016;52.162;21.034;2023-05-25T03:56:00;100808.24;;;18.75;62.82
24996;BME280;13016;52.162;21.034;2023-05-25T04:02:00;100808.43;;;18.85;62.74
24996;BME280;13016;52.162;21.034;2023-05-25T04:08:00;100806.21;;;18.95;62.42
24996;BME280;13016;52.162;21.034;2023-05-25T04:14:01;100810.08;;;18.96;62.35
24996;BME280;13016;52.162;21.034;2023-05-25T04:20:01;100818.13;;;18.96;62.37
24996;BME280;13016;52.162;21.034;2023-05-25T04:26:02;100821.77;;;19.05;62.48
24996;BME280;13016;52.162;21.034;2023-05-25T04:32:02;100823.11;;;19.10;62.13
24996;BME280;13016;52.162;21.034;2023-05-25T04:38:03;100818.64;;;19.08;62.06
24996;BME280;13016;52.162;21.034;2023-05-25T04:44:03;100817.11;;;19.13;62.14
24996;BME280;13016;52.162;21.034;2023-05-25T04:50:04;100821.70;;;19.34;61.71
24996;BME280;13016;52.162;21.034;2023-05-25T04:56:04;100828.86;;;19.42;61.34
24996;BME280;13016;52.162;21.034;2023-05-25T05:02:05;100829.98;;;19.46;61.10
24996;BME280;13016;52.162;21.034;2023-05-25T05:08:05;100830.35;;;19.57;60.82
24996;BME280;13016;52.162;21.034;2023-05-25T05:14:05;100832.89;;;19.59;60.47
24996;BME280;13016;52.162;21.034;2023-05-25T05:20:06;100840.59;;;19.62;60.42
24996;BME280;13016;52.162;21.034;2023-05-25T05:26:07;100854.13;;;19.69;60.37
24996;BME280;13016;52.162;21.034;2023-05-25T05:32:07;100853.30;;;19.59;60.32
24996;BME280;13016;52.162;21.034;2023-05-25T05:38:07;100857.85;;;19.56;60.55
24996;BME280;13016;52.162;21.034;2023-05-25T05:44:08;100854.65;;;19.58;60.59
24996;BME280;13016;52.162;21.034;2023-05-25T05:50:08;100862.42;;;19.57;60.66
24996;BME280;13016;52.162;21.034;2023-05-25T05:56:18;100870.18;;;19.71;60.29
24996;BME280;13016;52.162;21.034;2023-05-25T06:02:18;100869.75;;;19.82;59.88
24996;BME280;13016;52.162;21.034;2023-05-25T06:08:19;100869.98;;;19.97;59.55
24996;BME280;13016;52.162;21.034;2023-05-25T06:14:19;100880.64;;;20.03;59.18
24996;BME280;13016;52.162;21.034;2023-05-25T06:20:20;100890.02;;;20.03;59.30
24996;BME280;13016;52.162;21.034;2023-05-25T06:26:20;100898.70;;;20.23;59.02
24996;BME280;13016;52.162;21.034;2023-05-25T06:32:20;100906.22;;;20.27;58.60
24996;BME280;13016;52.162;21.034;2023-05-25T06:38:21;100915.08;;;20.33;58.22
24996;BME280;13016;52.162;21.034;2023-05-25T06:44:21;100917.68;;;20.23;58.34
24996;BME280;13016;52.162;21.034;2023-05-25T06:50:21;100917.77;;;20.35;58.44
24996;BME280;13016;52.162;21.034;2023-05-25T06:56:22;100909.55;;;20.43;58.31
24996;BME280;13016;52.162;21.034;2023-05-25T07:02:23;100912.14;;;20.55;57.80
24996;BME280;13016;52.162;21.034;2023-05-25T07:08:23;100919.02;;;20.69;57.62
24996;BME280;13016;52.162;21.034;2023-05-25T07:14:23;100914.65;;;20.87;57.49
24996;BME280;13016;52.162;21.034;2023-05-25T07:20:24;100916.71;;;20.97;56.76
24996;BME280;13016;52.162;21.034;2023-05-25T07:26:24;100910.45;;;20.99;56.59
24996;BME280;13016;52.162;21.034;2023-05-25T07:32:25;100910.64;;;21.03;56.61
24996;BME280;13016;52.162;21.034;2023-05-25T07:38:25;100912.36;;;21.07;56.40
24996;BME280;13016;52.162;21.034;2023-05-25T07:44:25;100916.20;;;20.99;56.22
24996;BME280;13016;52.162;21.034;2023-05-25T07:50:25;100911.55;;;21.12;56.31
24996;BME280;13016;52.162;21.034;2023-05-25T07:56:26;100908.30;;;21.19;55.98
24996;BME280;13016;52.162;21.034;2023-05-25T08:02:26;100915.14;;;21.41;55.44
24996;BME280;13016;52.162;21.034;2023-05-25T08:08:27;100907.95;;;21.39;55.11
24996;BME280;13016;52.162;21.034;2023-05-25T08:14:27;100907.42;;;21.59;55.16
24996;BME280;13016;52.162;21.034;2023-05-25T08:20:27;100913.50;;;21.83;54.63
24996;BME280;13016;52.162;21.034;2023-05-25T08:26:28;100923.80;;;22.14;53.83
24996;BME280;13016;52.162;21.034;2023-05-25T08:32:28;100921.23;;;22.43;53.08
24996;BME280;13016;52.162;21.034;2023-05-25T08:38:29;100926.20;;;22.66;52.65
24996;BME280;13016;52.162;21.034;2023-05-25T08:44:29;100921.80;;;22.69;52.29
24996;BME280;13016;52.162;21.034;2023-05-25T08:50:31;100920.04;;;22.89;51.71
24996;BME280;13016;52.162;21.034;2023-05-25T08:56:35;100925.22;;;23.20;51.46
24996;BME280;13016;52.162;21.034;2023-05-25T09:09:28;100926.60;;;23.63;49.47
24996;BME280;13016;52.162;21.034;2023-05-25T09:15:30;100926.00;;;23.68;49.11
24996;BME280;13016;52.162;21.034;2023-05-25T09:21:30;100926.47;;;23.89;49.32
24996;BME280;13016;52.162;21.034;2023-05-25T09:27:34;100930.96;;;23.84;49.01
24996;BME280;13016;52.162;21.034;2023-05-25T09:33:37;100937.76;;;24.05;48.48
24996;BME280;13016;52.162;21.034;2023-05-25T09:39:42;100945.22;;;24.16;48.02
24996;BME280;13016;52.162;21.034;2023-05-25T09:45:43;100945.64;;;24.26;47.58
24996;BME280;13016;52.162;21.034;2023-05-25T09:51:47;100942.92;;;23.99;47.84
24996;BME280;13016;52.162;21.034;2023-05-25T09:57:52;100942.86;;;24.03;48.03
24996;BME280;13016;52.162;21.034;2023-05-25T10:03:54;100947.58;;;24.08;48.31
24996;BME280;13016;52.162;21.034;2023-05-25T10:09:54;100947.67;;;24.11;48.28
24996;BME280;13016;52.162;21.034;2023-05-25T10:15:56;100950.35;;;24.05;48.73
24996;BME280;13016;52.162;21.034;2023-05-25T10:22:09;100950.52;;;24.15;48.72
24996;BME280;13016;52.162;21.034;2023-05-25T10:34:13;100943.30;;;24.43;48.97
24996;BME280;13016;52.162;21.034;2023-05-25T10:40:14;100931.35;;;24.56;47.60
24996;BME280;13016;52.162;21.034;2023-05-25T10:46:15;100923.65;;;24.94;48.09
24996;BME280;13016;52.162;21.034;2023-05-25T10:52:17;100923.58;;;25.48;47.25
24996;BME280;13016;52.162;21.034;2023-05-25T10:58:20;100922.03;;;25.78;45.82
24996;BME280;13016;52.162;21.034;2023-05-25T11:04:21;100916.69;;;26.04;45.33
24996;BME280;13016;52.162;21.034;2023-05-25T11:10:41;100916.56;;;26.34;45.22
24996;BME280;13016;52.162;21.034;2023-05-25T11:16:42;100915.10;;;26.71;43.30
24996;BME280;13016;52.162;21.034;2023-05-25T11:22:42;100905.61;;;27.10;43.11
24996;BME280;13016;52.162;21.034;2023-05-25T11:28:52;100907.59;;;27.41;43.29
24996;BME280;13016;52.162;21.034;2023-05-25T11:34:54;100905.81;;;27.75;42.15
24996;BME280;13016;52.162;21.034;2023-05-25T11:40:55;100911.04;;;28.03;41.27
24996;BME280;13016;52.162;21.034;2023-05-25T11:46:56;100900.91;;;28.24;40.51
24996;BME280;13016;52.162;21.034;2023-05-25T11:52:58;100900.48;;;28.45;40.16
24996;BME280;13016;52.162;21.034;2023-05-25T11:59:06;100904.30;;;28.67;39.48
24996;BME280;13016;52.162;21.034;2023-05-25T12:05:07;100895.60;;;28.74;39.04
24996;BME280;13016;52.162;21.034;2023-05-25T12:11:08;100892.69;;;28.47;39.50
24996;BME280;13016;52.162;21.034;2023-05-25T12:17:08;100891.98;;;28.56;39.75
24996;BME280;13016;52.162;21.034;2023-05-25T12:23:14;100886.58;;;28.75;39.40
24996;BME280;13016;52.162;21.034;2023-05-25T12:29:18;100881.02;;;28.65;39.83
24996;BME280;13016;52.162;21.034;2023-05-25T12:35:27;100880.90;;;28.73;39.11
24996;BME280;13016;52.162;21.034;2023-05-25T12:41:27;100875.54;;;28.96;40.13
24996;BME280;13016;52.162;21.034;2023-05-25T12:47:27;100863.42;;;29.02;39.58
24996;BME280;13016;52.162;21.034;2023-05-25T12:53:28;100857.27;;;29.08;39.33
24996;BME280;13016;52.162;21.034;2023-05-25T12:59:29;100850.15;;;28.96;39.61
24996;BME280;13016;52.162;21.034;2023-05-25T13:05:36;100844.57;;;28.96;38.92
24996;BME280;13016;52.162;21.034;2023-05-25T13:11:36;100829.09;;;28.82;39.54
24996;BME280;13016;52.162;21.034;2023-05-25T13:17:39;100825.48;;;28.86;40.11
24996;BME280;13016;52.162;21.034;2023-05-25T13:23:42;100818.29;;;29.01;40.26
24996;BME280;13016;52.162;21.034;2023-05-25T13:29:43;100811.84;;;29.03;39.93
24996;BME280;13016;52.162;21.034;2023-05-25T13:35:43;100804.88;;;28.94;40.11
24996;BME280;13016;52.162;21.034;2023-05-25T13:41:43;100803.30;;;28.77;40.27
24996;BME280;13016;52.162;21.034;2023-05-25T13:47:43;100801.71;;;28.46;40.15
24996;BME280;13016;52.162;21.034;2023-05-25T13:53:44;100797.36;;;28.46;39.91
24996;BME280;13016;52.162;21.034;2023-05-25T13:59:47;100791.14;;;28.41;41.03
24996;BME280;13016;52.162;21.034;2023-05-25T14:05:48;100784.46;;;28.49;40.72
24996;BME280;13016;52.162;21.034;2023-05-25T14:11:48;100784.36;;;28.52;40.58
24996;BME280;13016;52.162;21.034;2023-05-25T14:17:48;100784.77;;;28.40;39.72
24996;BME280;13016;52.162;21.034;2023-05-25T14:24:05;100783.77;;;28.32;39.39
24996;BME280;13016;52.162;21.034;2023-05-25T14:30:08;100783.80;;;28.56;39.84
24996;BME280;13016;52.162;21.034;2023-05-25T14:36:08;100784.05;;;28.66;38.69
24996;BME280;13016;52.162;21.034;2023-05-25T14:42:13;100785.30;;;28.72;38.34
24996;BME280;13016;52.162;21.034;2023-05-25T14:48:14;100782.54;;;28.64;38.77
24996;BME280;13016;52.162;21.034;2023-05-25T14:54:47;100780.44;;;28.29;39.10
24996;BME280;13016;52.162;21.034;2023-05-25T15:07:22;100772.98;;;28.27;39.50
24996;BME280;13016;52.162;21.034;2023-05-25T15:27:58;100777.56;;;28.47;38.78
24996;BME280;13016;52.162;21.034;2023-05-25T15:34:33;100776.05;;;28.35;38.78
24996;BME280;13016;52.162;21.034;2023-05-25T15:40:51;100771.84;;;28.28;38.72
24996;BME280;13016;52.162;21.034;2023-05-25T15:47:11;100765.38;;;28.26;39.12
24996;BME280;13016;52.162;21.034;2023-05-25T15:53:13;100765.97;;;28.20;39.01
24996;BME280;13016;52.162;21.034;2023-05-25T15:59:14;100767.27;;;28.25;39.35
24996;BME280;13016;52.162;21.034;2023-05-25T16:05:37;100766.08;;;28.23;39.15
24996;BME280;13016;52.162;21.034;2023-05-25T16:12:17;100762.54;;;28.09;38.84
24996;BME280;13016;52.162;21.034;2023-05-25T16:18:49;100761.61;;;28.13;38.95
24996;BME280;13016;52.162;21.034;2023-05-25T16:25:28;100760.27;;;27.84;38.66
24996;BME280;13016;52.162;21.034;2023-05-25T16:31:48;100761.09;;;27.93;38.64
24996;BME280;13016;52.162;21.034;2023-05-25T16:37:52;100760.48;;;27.81;38.86
24996;BME280;13016;52.162;21.034;2023-05-25T16:43:53;100767.17;;;27.84;38.80
24996;BME280;13016;52.162;21.034;2023-05-25T16:49:55;100764.02;;;27.79;39.27
24996;BME280;13016;52.162;21.034;2023-05-25T16:55:58;100758.81;;;27.68;39.74
24996;BME280;13016;52.162;21.034;2023-05-25T17:02:01;100752.14;;;27.58;39.93
24996;BME280;13016;52.162;21.034;2023-05-25T17:08:26;100753.86;;;27.54;40.17
24996;BME280;13016;52.162;21.034;2023-05-25T17:14:44;100758.93;;;27.49;40.33
24996;BME280;13016;52.162;21.034;2023-05-25T17:33:59;100761.02;;;27.11;41.01
24996;BME280;13016;52.162;21.034;2023-05-25T17:40:49;100764.36;;;27.02;40.98
24996;BME280;13016;52.162;21.034;2023-05-25T18:08:21;100768.89;;;27.32;40.75
24996;BME280;13016;52.162;21.034;2023-05-25T18:14:42;100770.53;;;27.00;40.99
24996;BME280;13016;52.162;21.034;2023-05-25T18:27:35;100776.02;;;26.62;41.67
24996;BME280;13016;52.162;21.034;2023-05-25T18:33:42;100783.48;;;26.41;42.08
24996;BME280;13016;52.162;21.034;2023-05-25T18:40:04;100792.61;;;26.37;42.11
24996;BME280;13016;52.162;21.034;2023-05-25T18:46:05;100791.33;;;26.30;42.24
24996;BME280;13016;52.162;21.034;2023-05-25T18:52:35;100803.45;;;26.24;42.55
24996;BME280;13016;52.162;21.034;2023-05-25T18:59:03;100806.59;;;26.18;42.91
24996;BME280;13016;52.162;21.034;2023-05-25T19:05:15;100807.80;;;26.01;43.20
24996;BME280;13016;52.162;21.034;2023-05-25T19:11:45;100809.79;;;26.03;43.32
24996;BME280;13016;52.162;21.034;2023-05-25T19:18:09;100814.37;;;26.01;43.36
24996;BME280;13016;52.162;21.034;2023-05-25T19:24:10;100817.25;;;26.01;43.32
24996;BME280;13016;52.162;21.034;2023-05-25T19:30:11;100815.33;;;25.96;43.55
24996;BME280;13016;52.162;21.034;2023-05-25T19:36:12;100819.64;;;25.96;43.70
24996;BME280;13016;52.162;21.034;2023-05-25T19:42:12;100814.36;;;25.88;43.78
24996;BME280;13016;52.162;21.034;2023-05-25T19:48:18;100818.34;;;25.81;44.12
24996;BME280;13016;52.162;21.034;2023-05-25T19:54:31;100818.23;;;25.70;44.14
24996;BME280;13016;52.162;21.034;2023-05-25T20:01:13;100820.60;;;25.50;44.82
24996;BME280;13016;52.162;21.034;2023-05-25T20:07:34;100815.98;;;25.46;44.79
24996;BME280;13016;52.162;21.034;2023-05-25T20:13:34;100816.67;;;25.34;45.19
24996;BME280;13016;52.162;21.034;2023-05-25T20:19:39;100814.00;;;25.34;45.29
24996;BME280;13016;52.162;21.034;2023-05-25T20:25:43;100818.97;;;25.33;45.15
24996;BME280;13016;52.162;21.034;2023-05-25T20:31:44;100817.91;;;25.22;45.44
24996;BME280;13016;52.162;21.034;2023-05-25T20:37:46;100818.94;;;25.25;45.58
24996;BME280;13016;52.162;21.034;2023-05-25T20:43:47;100818.05;;;25.25;45.59
24996;BME280;13016;52.162;21.034;2023-05-25T20:49:47;100820.69;;;25.18;45.76
24996;BME280;13016;52.162;21.034;2023-05-25T20:55:48;100825.63;;;25.07;46.14
24996;BME280;13016;52.162;21.034;2023-05-25T21:01:50;100830.73;;;25.05;46.20
24996;BME280;13016;52.162;21.034;2023-05-25T21:08:10;100834.67;;;25.02;46.71
24996;BME280;13016;52.162;21.034;2023-05-25T21:14:30;100833.73;;;24.97;46.55
24996;BME280;13016;52.162;21.034;2023-05-25T21:20:36;100835.02;;;24.86;46.94
24996;BME280;13016;52.162;21.034;2023-05-25T21:26:39;100839.65;;;24.76;47.34
24996;BME280;13016;52.162;21.034;2023-05-25T21:32:39;100841.47;;;24.64;47.77
24996;BME280;13016;52.162;21.034;2023-05-25T21:38:40;100851.84;;;24.52;48.09
24996;BME280;13016;52.162;21.034;2023-05-25T21:44:43;100858.34;;;24.38;48.55
24996;BME280;13016;52.162;21.034;2023-05-25T21:50:44;100861.98;;;24.19;49.24
24996;BME280;13016;52.162;21.034;2023-05-25T21:56:45;100863.57;;;24.03;49.62
24996;BME280;13016;52.162;21.034;2023-05-25T22:02:46;100861.06;;;23.79;50.58
24996;BME280;13016;52.162;21.034;2023-05-25T22:08:48;100859.92;;;23.68;50.84
24996;BME280;13016;52.162;21.034;2023-05-25T22:14:48;100867.86;;;23.61;51.16
24996;BME280;13016;52.162;21.034;2023-05-25T22:20:49;100866.70;;;23.55;51.25
24996;BME280;13016;52.162;21.034;2023-05-25T22:26:57;100862.71;;;23.44;51.31
24996;BME280;13016;52.162;21.034;2023-05-25T22:33:00;100863.77;;;23.39;51.56
24996;BME280;13016;52.162;21.034;2023-05-25T22:39:01;100870.79;;;23.28;51.54
24996;BME280;13016;52.162;21.034;2023-05-25T22:45:02;100872.83;;;23.19;51.71
24996;BME280;13016;52.162;21.034;2023-05-25T22:51:05;100879.85;;;23.12;51.87
24996;BME280;13016;52.162;21.034;2023-05-25T22:57:07;100875.74;;;22.96;52.51
24996;BME280;13016;52.162;21.034;2023-05-25T23:03:08;100876.23;;;22.83;52.85
24996;BME280;13016;52.162;21.034;2023-05-25T23:09:08;100877.89;;;22.78;52.88
24996;BME280;13016;52.162;21.034;2023-05-25T23:15:10;100880.98;;;22.72;52.63
24996;BME280;13016;52.162;21.034;2023-05-25T23:21:10;100887.15;;;22.70;52.45
24996;BME280;13016;52.162;21.034;2023-05-25T23:27:13;100894.98;;;22.67;52.32
24996;BME280;13016;52.162;21.034;2023-05-25T23:33:14;100897.69;;;22.62;52.62
24996;BME280;13016;52.162;21.034;2023-05-25T23:39:15;100901.18;;;22.58;52.92
24996;BME280;13016;52.162;21.034;2023-05-25T23:45:24;100894.98;;;22.45;53.30
24996;BME280;13016;52.162;21.034;2023-05-25T23:51:26;100897.30;;;22.31;53.14
24996;BME280;13016;52.162;21.034;2023-05-25T23:57:39;100899.40;;;22.19;52.36
